sensor_id;sensor_type;location;lat;lon;timestamp;pressure;altitude;pressure_sealevel;temperature;humidity
34931;BME280;21134;49.646;8.560;2022-10-28T00:01:28;101256.00;;;13.11;100.00
34931;BME280;21134;49.646;8.560;2022-10-28T00:03:56;101250.91;;;13.08;100.00
34931;BME280;21134;49.646;8.560;2022-10-28T00:06:24;101246.59;;;13.04;100.00
34931;BME280;21134;49.646;8.560;2022-10-28T00:08:51;101252.59;;;13.03;100.00
34931;BME280;21134;49.646;8.560;2022-10-28T00:11:21;101248.31;;;13.03;100.00
34931;BME280;21134;49.646;8.560;2022-10-28T00:13:48;101244.88;;;13.03;100.00
34931;BME280;21134;49.646;8.560;2022-10-28T00:16:17;101240.59;;;13.00;100.00
34931;BME280;21134;49.646;8.560;2022-10-28T00:18:46;101250.91;;;13.02;100.00
34931;BME280;21134;49.646;8.560;2022-10-28T00:21:16;101242.31;;;13.00;100.00
34931;BME280;21134;49.646;8.560;2022-10-28T00:23:43;101253.47;;;12.99;100.00
34931;BME280;21134;49.646;8.560;2022-10-28T00:26:11;101266.28;;;12.97;100.00
34931;BME280;21134;49.646;8.560;2022-10-28T00:28:40;101274.00;;;13.03;100.00
34931;BME280;21134;49.646;8.560;2022-10-28T00:31:07;101273.13;;;13.08;100.00
34931;BME280;21134;49.646;8.560;2022-10-28T00:33:34;101271.44;;;13.07;100.00
34931;BME280;21134;49.646;8.560;2022-10-28T00:36:11;101272.28;;;13.07;100.00
34931;BME280;21134;49.646;8.560;2022-10-28T00:38:38;101265.44;;;13.04;100.00
34931;BME280;21134;49.646;8.560;2022-10-28T00:41:05;101269.75;;;13.09;100.00
34931;BME280;21134;49.646;8.560;2022-10-28T00:43:33;101262.03;;;13.10;100.00
34931;BME280;21134;49.646;8.560;2022-10-28T00:46:00;101255.16;;;13.08;100.00
34931;BME280;21134;49.646;8.560;2022-10-28T00:48:27;101258.59;;;13.13;100.00
34931;BME280;21134;49.646;8.560;2022-10-28T00:50:54;101245.75;;;13.16;100.00
34931;BME280;21134;49.646;8.560;2022-10-28T00:53:25;101245.75;;;13.19;100.00
34931;BME280;21134;49.646;8.560;2022-10-28T00:55:54;101246.59;;;13.19;100.00
34931;BME280;21134;49.646;8.560;2022-10-28T00:58:23;101253.47;;;13.22;100.00
34931;BME280;21134;49.646;8.560;2022-10-28T01:00:51;101256.91;;;13.27;100.00
34931;BME280;21134;49.646;8.560;2022-10-28T01:03:18;101253.50;;;13.25;100.00
34931;BME280;21134;49.646;8.560;2022-10-28T01:05:46;101259.50;;;13.25;100.00
34931;BME280;21134;49.646;8.560;2022-10-28T01:08:14;101250.91;;;13.26;100.00
34931;BME280;21134;49.646;8.560;2022-10-28T01:11:04;101246.66;;;13.29;100.00
34931;BME280;21134;49.646;8.560;2022-10-28T01:13:40;101232.94;;;13.30;100.00
34931;BME280;21134;49.646;8.560;2022-10-28T01:16:21;101223.50;;;13.33;100.00
34931;BME280;21134;49.646;8.560;2022-10-28T01:18:57;101221.81;;;13.35;100.00
34931;BME280;21134;49.646;8.560;2022-10-28T01:21:51;101232.06;;;13.37;100.00
34931;BME280;21134;49.646;8.560;2022-10-28T01:24:38;101231.22;;;13.41;100.00
34931;BME280;21134;49.646;8.560;2022-10-28T01:27:43;101235.53;;;13.40;100.00
34931;BME280;21134;49.646;8.560;2022-10-28T01:30:18;101232.06;;;13.46;100.00
34931;BME280;21134;49.646;8.560;2022-10-28T01:32:54;101230.34;;;13.48;100.00
34931;BME280;21134;49.646;8.560;2022-10-28T01:35:29;101242.34;;;13.51;100.00
34931;BME280;21134;49.646;8.560;2022-10-28T01:38:14;101238.03;;;13.56;100.00
34931;BME280;21134;49.646;8.560;2022-10-28T01:40:46;101231.19;;;13.58;100.00
34931;BME280;21134;49.646;8.560;2022-10-28T01:43:22;101236.34;;;13.58;100.00
34931;BME280;21134;49.646;8.560;2022-10-28T01:45:55;101240.63;;;13.59;100.00
34931;BME280;21134;49.646;8.560;2022-10-28T01:48:29;101245.78;;;13.60;100.00
34931;BME280;21134;49.646;8.560;2022-10-28T01:51:02;101238.91;;;13.58;100.00
34931;BME280;21134;49.646;8.560;2022-10-28T01:53:33;101249.22;;;13.59;100.00
34931;BME280;21134;49.646;8.560;2022-10-28T01:56:04;101242.34;;;13.60;100.00
34931;BME280;21134;49.646;8.560;2022-10-28T01:58:32;101232.91;;;13.59;100.00
34931;BME280;21134;49.646;8.560;2022-10-28T02:01:04;101233.78;;;13.61;100.00
34931;BME280;21134;49.646;8.560;2022-10-28T02:03:32;101220.03;;;13.59;100.00
34931;BME280;21134;49.646;8.560;2022-10-28T02:06:00;101219.22;;;13.60;100.00
34931;BME280;21134;49.646;8.560;2022-10-28T02:08:36;101214.91;;;13.60;100.00
34931;BME280;21134;49.646;8.560;2022-10-28T02:11:32;101212.34;;;13.60;100.00
34931;BME280;21134;49.646;8.560;2022-10-28T02:14:06;101208.06;;;13.61;100.00
34931;BME280;21134;49.646;8.560;2022-10-28T02:16:41;101208.03;;;13.62;100.00
34931;BME280;21134;49.646;8.560;2022-10-28T02:19:19;101208.03;;;13.64;100.00
34931;BME280;21134;49.646;8.560;2022-10-28T02:22:00;101204.59;;;13.65;100.00
34931;BME280;21134;49.646;8.560;2022-10-28T02:24:37;101212.31;;;13.65;100.00
34931;BME280;21134;49.646;8.560;2022-10-28T02:27:11;101203.78;;;13.66;100.00
34931;BME280;21134;49.646;8.560;2022-10-28T02:29:43;101199.47;;;13.66;100.00
34931;BME280;21134;49.646;8.560;2022-10-28T02:32:14;101195.19;;;13.67;100.00
34931;BME280;21134;49.646;8.560;2022-10-28T02:34:44;101195.16;;;13.68;100.00
34931;BME280;21134;49.646;8.560;2022-10-28T02:37:15;101193.47;;;13.67;100.00
34931;BME280;21134;49.646;8.560;2022-10-28T02:39:47;101196.91;;;13.69;100.00
34931;BME280;21134;49.646;8.560;2022-10-28T02:42:17;101193.47;;;13.67;100.00
34931;BME280;21134;49.646;8.560;2022-10-28T02:44:47;101189.19;;;13.66;100.00
34931;BME280;21134;49.646;8.560;2022-10-28T02:47:18;101196.88;;;13.68;100.00
34931;BME280;21134;49.646;8.560;2022-10-28T02:49:51;101183.16;;;13.70;100.00
34931;BME280;21134;49.646;8.560;2022-10-28T02:52:21;101181.47;;;13.69;100.00
34931;BME280;21134;49.646;8.560;2022-10-28T02:54:53;101174.59;;;13.67;100.00
34931;BME280;21134;49.646;8.560;2022-10-28T02:57:22;101174.59;;;13.68;100.00
34931;BME280;21134;49.646;8.560;2022-10-28T02:59:51;101172.91;;;13.66;100.00
34931;BME280;21134;49.646;8.560;2022-10-28T03:02:18;101166.88;;;13.65;100.00
34931;BME280;21134;49.646;8.560;2022-10-28T03:04:45;101166.03;;;13.65;100.00
34931;BME280;21134;49.646;8.560;2022-10-28T03:07:12;101164.31;;;13.62;100.00
34931;BME280;21134;49.646;8.560;2022-10-28T03:09:39;101166.88;;;13.62;100.00
34931;BME280;21134;49.646;8.560;2022-10-28T03:12:05;101166.03;;;13.62;100.00
34931;BME280;21134;49.646;8.560;2022-10-28T03:14:32;101160.91;;;13.62;100.00
34931;BME280;21134;49.646;8.560;2022-10-28T03:16:59;101161.75;;;13.62;100.00
34931;BME280;21134;49.646;8.560;2022-10-28T03:19:25;101154.91;;;13.63;100.00
34931;BME280;21134;49.646;8.560;2022-10-28T03:21:52;101140.31;;;13.65;100.00
34931;BME280;21134;49.646;8.560;2022-10-28T03:24:20;101150.63;;;13.66;100.00
34931;BME280;21134;49.646;8.560;2022-10-28T03:26:46;101151.44;;;13.65;100.00
34931;BME280;21134;49.646;8.560;2022-10-28T03:29:13;101142.03;;;13.64;100.00
34931;BME280;21134;49.646;8.560;2022-10-28T03:31:39;101138.59;;;13.67;100.00
34931;BME280;21134;49.646;8.560;2022-10-28T03:34:06;101132.63;;;13.66;100.00
34931;BME280;21134;49.646;8.560;2022-10-28T03:36:32;101135.19;;;13.66;100.00
34931;BME280;21134;49.646;8.560;2022-10-28T03:38:59;101123.16;;;13.68;100.00
34931;BME280;21134;49.646;8.560;2022-10-28T03:41:28;101126.59;;;13.67;100.00
34931;BME280;21134;49.646;8.560;2022-10-28T03:43:55;101135.19;;;13.69;100.00
34931;BME280;21134;49.646;8.560;2022-10-28T03:46:22;101133.44;;;13.71;100.00
34931;BME280;21134;49.646;8.560;2022-10-28T03:48:48;101121.44;;;13.73;100.00
34931;BME280;21134;49.646;8.560;2022-10-28T03:51:15;101123.16;;;13.73;100.00
34931;BME280;21134;49.646;8.560;2022-10-28T03:53:41;101125.72;;;13.73;100.00
34931;BME280;21134;49.646;8.560;2022-10-28T03:56:08;101139.41;;;13.75;100.00
34931;BME280;21134;49.646;8.560;2022-10-28T03:58:36;101143.72;;;13.76;100.00
34931;BME280;21134;49.646;8.560;2022-10-28T04:01:03;101146.28;;;13.75;100.00
34931;BME280;21134;49.646;8.560;2022-10-28T04:03:29;101150.56;;;13.79;100.00
34931;BME280;21134;49.646;8.560;2022-10-28T04:05:56;101154.84;;;13.83;100.00
34931;BME280;21134;49.646;8.560;2022-10-28T04:08:22;101152.28;;;13.83;100.00
34931;BME280;21134;49.646;8.560;2022-10-28T04:10:49;101151.41;;;13.82;100.00
34931;BME280;21134;49.646;8.560;2022-10-28T04:13:16;101150.56;;;13.83;100.00
34931;BME280;21134;49.646;8.560;2022-10-28T04:15:44;101157.41;;;13.86;100.00
34931;BME280;21134;49.646;8.560;2022-10-28T04:18:10;101155.69;;;13.86;100.00
34931;BME280;21134;49.646;8.560;2022-10-28T04:20:37;101165.94;;;13.88;100.00
34931;BME280;21134;49.646;8.560;2022-10-28T04:23:03;101163.38;;;13.91;100.00
34931;BME280;21134;49.646;8.560;2022-10-28T04:25:30;101154.81;;;13.92;100.00
34931;BME280;21134;49.646;8.560;2022-10-28T04:27:56;101154.81;;;13.92;100.00
34931;BME280;21134;49.646;8.560;2022-10-28T04:30:23;101161.66;;;13.96;100.00
34931;BME280;21134;49.646;8.560;2022-10-28T04:32:51;101161.66;;;13.98;100.00
34931;BME280;21134;49.646;8.560;2022-10-28T04:35:17;101171.94;;;13.98;100.00
34931;BME280;21134;49.646;8.560;2022-10-28T04:37:44;101173.63;;;13.97;100.00
34931;BME280;21134;49.646;8.560;2022-10-28T04:40:11;101176.22;;;13.99;100.00
34931;BME280;21134;49.646;8.560;2022-10-28T04:42:38;101179.63;;;14.02;100.00
34931;BME280;21134;49.646;8.560;2022-10-28T04:45:05;101180.50;;;14.00;100.00
34931;BME280;21134;49.646;8.560;2022-10-28T04:47:32;101180.47;;;14.03;100.00
34931;BME280;21134;49.646;8.560;2022-10-28T04:50:00;101187.38;;;13.98;100.00
34931;BME280;21134;49.646;8.560;2022-10-28T04:52:26;101195.06;;;14.02;100.00
34931;BME280;21134;49.646;8.560;2022-10-28T04:54:53;101195.94;;;13.96;100.00
34931;BME280;21134;49.646;8.560;2022-10-28T04:57:19;101206.22;;;13.96;100.00
34931;BME280;21134;49.646;8.560;2022-10-28T04:59:46;101199.38;;;13.94;100.00
34931;BME280;21134;49.646;8.560;2022-10-28T05:02:12;101194.22;;;13.94;100.00
34931;BME280;21134;49.646;8.560;2022-10-28T05:04:39;101186.53;;;13.92;100.00
34931;BME280;21134;49.646;8.560;2022-10-28T05:07:07;101182.25;;;13.87;100.00
34931;BME280;21134;49.646;8.560;2022-10-28T05:09:33;101167.66;;;13.90;100.00
34931;BME280;21134;49.646;8.560;2022-10-28T05:12:00;101165.94;;;13.88;100.00
34931;BME280;21134;49.646;8.560;2022-10-28T05:14:26;101171.97;;;13.88;100.00
34931;BME280;21134;49.646;8.560;2022-10-28T05:16:53;101182.28;;;13.85;100.00
34931;BME280;21134;49.646;8.560;2022-10-28T05:19:19;101171.13;;;13.85;100.00
34931;BME280;21134;49.646;8.560;2022-10-28T05:21:46;101169.44;;;13.82;100.00
34931;BME280;21134;49.646;8.560;2022-10-28T05:24:13;101163.44;;;13.79;100.00
34931;BME280;21134;49.646;8.560;2022-10-28T05:26:40;101160.88;;;13.74;100.00
34931;BME280;21134;49.646;8.560;2022-10-28T05:29:06;101163.47;;;13.69;100.00
34931;BME280;21134;49.646;8.560;2022-10-28T05:31:33;101162.63;;;13.66;100.00
34931;BME280;21134;49.646;8.560;2022-10-28T05:33:59;101160.91;;;13.60;100.00
34931;BME280;21134;49.646;8.560;2022-10-28T05:36:26;101154.94;;;13.57;100.00
34931;BME280;21134;49.646;8.560;2022-10-28T05:38:52;101147.22;;;13.51;100.00
34931;BME280;21134;49.646;8.560;2022-10-28T05:41:20;101148.97;;;13.47;100.00
34931;BME280;21134;49.646;8.560;2022-10-28T05:43:46;101155.81;;;13.46;100.00
34931;BME280;21134;49.646;8.560;2022-10-28T05:46:13;101148.09;;;13.42;100.00
34931;BME280;21134;49.646;8.560;2022-10-28T05:48:39;101153.25;;;13.39;100.00
34931;BME280;21134;49.646;8.560;2022-10-28T05:51:06;101151.53;;;13.38;100.00
34931;BME280;21134;49.646;8.560;2022-10-28T05:53:32;101156.66;;;13.36;100.00
34931;BME280;21134;49.646;8.560;2022-10-28T05:55:59;101150.69;;;13.33;100.00
34931;BME280;21134;49.646;8.560;2022-10-28T05:58:26;101153.28;;;13.34;100.00
34931;BME280;21134;49.646;8.560;2022-10-28T06:00:53;101136.13;;;13.32;100.00
34931;BME280;21134;49.646;8.560;2022-10-28T06:03:19;101132.72;;;13.31;100.00
34931;BME280;21134;49.646;8.560;2022-10-28T06:05:46;101130.97;;;13.30;100.00
34931;BME280;21134;49.646;8.560;2022-10-28T06:08:12;101124.16;;;13.31;100.00
34931;BME280;21134;49.646;8.560;2022-10-28T06:10:39;101124.16;;;13.31;100.00
34931;BME280;21134;49.646;8.560;2022-10-28T06:13:07;101128.41;;;13.32;100.00
34931;BME280;21134;49.646;8.560;2022-10-28T06:15:35;101137.84;;;13.34;100.00
34931;BME280;21134;49.646;8.560;2022-10-28T06:18:02;101137.84;;;13.40;100.00
34931;BME280;21134;49.646;8.560;2022-10-28T06:20:28;101144.66;;;13.43;100.00
34931;BME280;21134;49.646;8.560;2022-10-28T06:22:55;101153.22;;;13.45;100.00
34931;BME280;21134;49.646;8.560;2022-10-28T06:25:23;101149.81;;;13.47;100.00
34931;BME280;21134;49.646;8.560;2022-10-28T06:27:53;101150.63;;;13.49;100.00
34931;BME280;21134;49.646;8.560;2022-10-28T06:30:20;101148.09;;;13.51;100.00
34931;BME280;21134;49.646;8.560;2022-10-28T06:32:48;101144.63;;;13.52;100.00
34931;BME280;21134;49.646;8.560;2022-10-28T06:35:15;101148.94;;;13.55;100.00
34931;BME280;21134;49.646;8.560;2022-10-28T06:37:41;101147.19;;;13.55;100.00
34931;BME280;21134;49.646;8.560;2022-10-28T06:40:08;101152.34;;;13.55;100.00
34931;BME280;21134;49.646;8.560;2022-10-28T06:42:35;101154.09;;;13.56;100.00
34931;BME280;21134;49.646;8.560;2022-10-28T06:45:02;101154.06;;;13.58;100.00
34931;BME280;21134;49.646;8.560;2022-10-28T06:47:29;101158.34;;;13.60;100.00
34931;BME280;21134;49.646;8.560;2022-10-28T06:49:56;101155.75;;;13.62;100.00
34931;BME280;21134;49.646;8.560;2022-10-28T06:52:23;101159.19;;;13.64;100.00
34931;BME280;21134;49.646;8.560;2022-10-28T06:54:49;101160.03;;;13.67;100.00
34931;BME280;21134;49.646;8.560;2022-10-28T06:57:16;101163.44;;;13.71;100.00
34931;BME280;21134;49.646;8.560;2022-10-28T06:59:42;101166.00;;;13.74;100.00
34931;BME280;21134;49.646;8.560;2022-10-28T07:02:09;101166.88;;;13.79;100.00
34931;BME280;21134;49.646;8.560;2022-10-28T07:04:36;101163.41;;;13.83;100.00
34931;BME280;21134;49.646;8.560;2022-10-28T07:07:04;101159.97;;;13.86;100.00
34931;BME280;21134;49.646;8.560;2022-10-28T07:09:30;101165.13;;;13.89;100.00
34931;BME280;21134;49.646;8.560;2022-10-28T07:11:57;101162.53;;;13.92;100.00
34931;BME280;21134;49.646;8.560;2022-10-28T07:14:24;101162.50;;;13.96;100.00
34931;BME280;21134;49.646;8.560;2022-10-28T07:16:51;101165.94;;;13.99;100.00
34931;BME280;21134;49.646;8.560;2022-10-28T07:19:18;101170.22;;;14.01;100.00
34931;BME280;21134;49.646;8.560;2022-10-28T07:21:46;101177.91;;;14.07;100.00
34931;BME280;21134;49.646;8.560;2022-10-28T07:24:14;101177.03;;;14.11;100.00
34931;BME280;21134;49.646;8.560;2022-10-28T07:26:40;101177.00;;;14.16;100.00
34931;BME280;21134;49.646;8.560;2022-10-28T07:29:07;101180.44;;;14.18;100.00
34931;BME280;21134;49.646;8.560;2022-10-28T07:31:33;101184.69;;;14.22;100.00
34931;BME280;21134;49.646;8.560;2022-10-28T07:34:00;101187.25;;;14.25;100.00
34931;BME280;21134;49.646;8.560;2022-10-28T07:36:26;101191.53;;;14.28;100.00
34931;BME280;21134;49.646;8.560;2022-10-28T07:38:53;101190.66;;;14.30;100.00
34931;BME280;21134;49.646;8.560;2022-10-28T07:41:21;101189.78;;;14.36;100.00
34931;BME280;21134;49.646;8.560;2022-10-28T07:43:48;101197.44;;;14.42;100.00
34931;BME280;21134;49.646;8.560;2022-10-28T07:46:15;101193.16;;;14.44;100.00
34931;BME280;21134;49.646;8.560;2022-10-28T07:48:42;101191.44;;;14.51;100.00
34931;BME280;21134;49.646;8.560;2022-10-28T07:51:11;101193.13;;;14.56;100.00
34931;BME280;21134;49.646;8.560;2022-10-28T07:53:38;101193.09;;;14.62;100.00
34931;BME280;21134;49.646;8.560;2022-10-28T07:56:06;101195.56;;;14.73;100.00
34931;BME280;21134;49.646;8.560;2022-10-28T07:58:35;101193.81;;;14.81;100.00
34931;BME280;21134;49.646;8.560;2022-10-28T08:01:03;101200.63;;;14.88;100.00
34931;BME280;21134;49.646;8.560;2022-10-28T08:03:30;101196.28;;;14.95;100.00
34931;BME280;21134;49.646;8.560;2022-10-28T08:06:00;101211.69;;;15.04;100.00
34931;BME280;21134;49.646;8.560;2022-10-28T08:08:27;101206.47;;;15.10;100.00
34931;BME280;21134;49.646;8.560;2022-10-28T08:10:53;101209.81;;;15.19;100.00
34931;BME280;21134;49.646;8.560;2022-10-28T08:13:20;101201.22;;;15.23;100.00
34931;BME280;21134;49.646;8.560;2022-10-28T08:15:52;101204.59;;;15.29;100.00
34931;BME280;21134;49.646;8.560;2022-10-28T08:18:18;101202.84;;;15.33;100.00
34931;BME280;21134;49.646;8.560;2022-10-28T08:20:45;101200.22;;;15.38;100.00
34931;BME280;21134;49.646;8.560;2022-10-28T08:23:12;101202.72;;;15.44;100.00
34931;BME280;21134;49.646;8.560;2022-10-28T08:25:46;101189.72;;;15.56;100.00
34931;BME280;21134;49.646;8.560;2022-10-28T08:28:12;101191.38;;;15.60;100.00
34931;BME280;21134;49.646;8.560;2022-10-28T08:30:39;101200.75;;;15.72;100.00
34931;BME280;21134;49.646;8.560;2022-10-28T08:33:07;101199.81;;;15.80;100.00
34931;BME280;21134;49.646;8.560;2022-10-28T08:35:33;101206.59;;;15.89;99.78
34931;BME280;21134;49.646;8.560;2022-10-28T08:38:00;101197.00;;;16.02;99.28
34931;BME280;21134;49.646;8.560;2022-10-28T08:40:31;101199.53;;;16.05;98.28
34931;BME280;21134;49.646;8.560;2022-10-28T08:43:02;101202.91;;;16.12;98.39
34931;BME280;21134;49.646;8.560;2022-10-28T08:45:39;101197.63;;;16.21;97.92
34931;BME280;21134;49.646;8.560;2022-10-28T08:48:20;101195.81;;;16.27;96.94
34931;BME280;21134;49.646;8.560;2022-10-28T08:50:53;101195.72;;;16.32;96.91
34931;BME280;21134;49.646;8.560;2022-10-28T08:53:26;101192.22;;;16.38;96.96
34931;BME280;21134;49.646;8.560;2022-10-28T08:55:55;101197.28;;;16.45;96.46
34931;BME280;21134;49.646;8.560;2022-10-28T08:58:29;101187.69;;;16.52;95.96
34931;BME280;21134;49.646;8.560;2022-10-28T09:00:58;101191.09;;;16.57;95.16
34931;BME280;21134;49.646;8.560;2022-10-28T09:03:26;101192.66;;;16.69;94.31
34931;BME280;21134;49.646;8.560;2022-10-28T09:05:59;101193.44;;;16.76;93.72
34931;BME280;21134;49.646;8.560;2022-10-28T09:08:28;101195.88;;;16.83;93.21
34931;BME280;21134;49.646;8.560;2022-10-28T09:11:02;101194.06;;;16.91;93.21
34931;BME280;21134;49.646;8.560;2022-10-28T09:13:40;101196.59;;;16.93;93.24
34931;BME280;21134;49.646;8.560;2022-10-28T09:16:16;101195.59;;;17.00;92.28
34931;BME280;21134;49.646;8.560;2022-10-28T09:18:53;101195.50;;;17.06;91.45
34931;BME280;21134;49.646;8.560;2022-10-28T09:21:24;101190.28;;;17.11;91.20
34931;BME280;21134;49.646;8.560;2022-10-28T09:23:55;101192.88;;;17.09;90.92
34931;BME280;21134;49.646;8.560;2022-10-28T09:26:32;101188.53;;;17.11;89.39
34931;BME280;21134;49.646;8.560;2022-10-28T09:29:14;101197.09;;;17.15;89.43
34931;BME280;21134;49.646;8.560;2022-10-28T09:31:45;101200.63;;;17.09;89.52
34931;BME280;21134;49.646;8.560;2022-10-28T09:34:20;101192.03;;;17.10;89.24
34931;BME280;21134;49.646;8.560;2022-10-28T09:36:53;101193.81;;;17.04;89.89
34931;BME280;21134;49.646;8.560;2022-10-28T09:39:24;101193.91;;;16.99;89.85
34931;BME280;21134;49.646;8.560;2022-10-28T09:41:53;101190.53;;;16.94;90.71
34931;BME280;21134;49.646;8.560;2022-10-28T09:44:26;101190.44;;;17.00;90.90
34931;BME280;21134;49.646;8.560;2022-10-28T09:46:56;101191.03;;;17.16;90.32
34931;BME280;21134;49.646;8.560;2022-10-28T09:49:27;101192.63;;;17.26;90.31
34931;BME280;21134;49.646;8.560;2022-10-28T09:52:02;101187.03;;;17.49;89.01
34931;BME280;21134;49.646;8.560;2022-10-28T09:54:33;101185.00;;;17.63;88.26
34931;BME280;21134;49.646;8.560;2022-10-28T09:57:02;101190.91;;;17.70;87.58
34931;BME280;21134;49.646;8.560;2022-10-28T09:59:29;101196.72;;;17.84;86.73
34931;BME280;21134;49.646;8.560;2022-10-28T10:01:55;101196.44;;;17.98;85.28
34931;BME280;21134;49.646;8.560;2022-10-28T10:04:24;101198.69;;;18.15;84.11
34931;BME280;21134;49.646;8.560;2022-10-28T10:06:55;101203.59;;;18.27;83.22
34931;BME280;21134;49.646;8.560;2022-10-28T10:09:26;101204.38;;;18.31;83.36
34931;BME280;21134;49.646;8.560;2022-10-28T10:11:55;101203.47;;;18.35;83.13
34931;BME280;21134;49.646;8.560;2022-10-28T10:14:27;101199.53;;;18.56;81.61
34931;BME280;21134;49.646;8.560;2022-10-28T10:16:56;101191.28;;;18.77;80.01
34931;BME280;21134;49.646;8.560;2022-10-28T10:19:24;101184.34;;;18.79;79.18
34931;BME280;21134;49.646;8.560;2022-10-28T10:21:53;101192.75;;;18.89;79.22
34931;BME280;21134;49.646;8.560;2022-10-28T10:24:31;101191.56;;;19.01;78.84
34931;BME280;21134;49.646;8.560;2022-10-28T10:27:00;101192.16;;;19.12;76.81
34931;BME280;21134;49.646;8.560;2022-10-28T10:29:28;101200.41;;;19.28;76.12
34931;BME280;21134;49.646;8.560;2022-10-28T10:32:04;101195.69;;;19.42;75.20
34931;BME280;21134;49.646;8.560;2022-10-28T10:34:32;101194.63;;;19.49;74.27
34931;BME280;21134;49.646;8.560;2022-10-28T10:37:01;101188.34;;;19.58;73.68
34931;BME280;21134;49.646;8.560;2022-10-28T10:39:33;101186.19;;;19.76;72.18
34931;BME280;21134;49.646;8.560;2022-10-28T10:42:01;101189.50;;;19.81;72.48
34931;BME280;21134;49.646;8.560;2022-10-28T10:44:32;101182.00;;;20.01;71.14
34931;BME280;21134;49.646;8.560;2022-10-28T10:47:18;101181.44;;;20.19;68.78
34931;BME280;21134;49.646;8.560;2022-10-28T10:49:47;101183.38;;;20.13;69.69
34931;BME280;21134;49.646;8.560;2022-10-28T10:52:19;101183.72;;;20.30;69.22
34931;BME280;21134;49.646;8.560;2022-10-28T10:55:00;101179.84;;;20.43;69.02
34931;BME280;21134;49.646;8.560;2022-10-28T10:57:27;101174.56;;;20.47;67.38
34931;BME280;21134;49.646;8.560;2022-10-28T10:59:55;101173.56;;;20.51;67.48
34931;BME280;21134;49.646;8.560;2022-10-28T11:02:25;101167.91;;;20.66;67.95
34931;BME280;21134;49.646;8.560;2022-10-28T11:04:54;101176.97;;;20.81;67.68
34931;BME280;21134;49.646;8.560;2022-10-28T11:07:24;101173.31;;;20.86;66.92
34931;BME280;21134;49.646;8.560;2022-10-28T11:09:52;101169.00;;;20.85;67.15
34931;BME280;21134;49.646;8.560;2022-10-28T11:12:25;101167.78;;;20.97;66.69
34931;BME280;21134;49.646;8.560;2022-10-28T11:14:55;101154.59;;;21.02;66.41
34931;BME280;21134;49.646;8.560;2022-10-28T11:17:23;101151.75;;;21.09;67.00
34931;BME280;21134;49.646;8.560;2022-10-28T11:19:53;101146.34;;;21.16;66.97
34931;BME280;21134;49.646;8.560;2022-10-28T11:22:27;101148.06;;;21.15;66.77
34931;BME280;21134;49.646;8.560;2022-10-28T11:25:18;101147.13;;;21.18;65.77
34931;BME280;21134;49.646;8.560;2022-10-28T11:27:53;101148.19;;;21.37;64.81
34931;BME280;21134;49.646;8.560;2022-10-28T11:30:24;101153.59;;;21.31;64.15
34931;BME280;21134;49.646;8.560;2022-10-28T11:33:02;101151.91;;;21.30;63.75
34931;BME280;21134;49.646;8.560;2022-10-28T11:35:42;101140.28;;;21.40;64.48
34931;BME280;21134;49.646;8.560;2022-10-28T11:38:21;101138.16;;;21.51;62.63
34931;BME280;21134;49.646;8.560;2022-10-28T11:41:04;101145.78;;;21.56;62.94
34931;BME280;21134;49.646;8.560;2022-10-28T11:43:40;101137.47;;;21.46;63.98
34931;BME280;21134;49.646;8.560;2022-10-28T11:46:17;101135.25;;;21.59;63.88
34931;BME280;21134;49.646;8.560;2022-10-28T11:48:57;101133.25;;;21.67;63.44
34931;BME280;21134;49.646;8.560;2022-10-28T11:51:31;101133.34;;;21.88;63.19
34931;BME280;21134;49.646;8.560;2022-10-28T11:54:24;101121.75;;;21.95;62.58
34931;BME280;21134;49.646;8.560;2022-10-28T11:57:00;101123.13;;;22.05;62.03
34931;BME280;21134;49.646;8.560;2022-10-28T11:59:46;101112.31;;;22.16;62.68
34931;BME280;21134;49.646;8.560;2022-10-28T12:02:29;101116.31;;;22.24;62.00
34931;BME280;21134;49.646;8.560;2022-10-28T12:05:03;101117.75;;;22.32;61.44
34931;BME280;21134;49.646;8.560;2022-10-28T12:08:07;101111.25;;;22.42;60.76
34931;BME280;21134;49.646;8.560;2022-10-28T12:10:50;101104.63;;;22.55;60.93
34931;BME280;21134;49.646;8.560;2022-10-28T12:13:27;101091.47;;;22.58;60.74
34931;BME280;21134;49.646;8.560;2022-10-28T12:15:59;101086.53;;;22.72;60.88
34931;BME280;21134;49.646;8.560;2022-10-28T12:18:32;101084.78;;;22.73;60.33
34931;BME280;21134;49.646;8.560;2022-10-28T12:21:05;101083.59;;;22.80;59.14
34931;BME280;21134;49.646;8.560;2022-10-28T12:23:36;101081.56;;;22.87;58.82
34931;BME280;21134;49.646;8.560;2022-10-28T12:26:09;101078.13;;;22.86;59.17
34931;BME280;21134;49.646;8.560;2022-10-28T12:28:41;101074.56;;;22.87;59.57
34931;BME280;21134;49.646;8.560;2022-10-28T12:31:16;101087.34;;;22.95;58.19
34931;BME280;21134;49.646;8.560;2022-10-28T12:33:45;101087.31;;;22.74;59.17
34931;BME280;21134;49.646;8.560;2022-10-28T12:36:21;101086.28;;;22.79;59.75
34931;BME280;21134;49.646;8.560;2022-10-28T12:38:56;101073.59;;;22.90;59.21
34931;BME280;21134;49.646;8.560;2022-10-28T12:41:39;101074.06;;;22.79;58.21
34931;BME280;21134;49.646;8.560;2022-10-28T12:44:09;101073.28;;;22.77;58.91
34931;BME280;21134;49.646;8.560;2022-10-28T12:46:45;101072.53;;;22.75;59.16
34931;BME280;21134;49.646;8.560;2022-10-28T12:49:17;101064.41;;;22.61;60.16
34931;BME280;21134;49.646;8.560;2022-10-28T12:51:46;101067.72;;;22.64;59.56
34931;BME280;21134;49.646;8.560;2022-10-28T12:54:20;101068.38;;;22.49;61.53
34931;BME280;21134;49.646;8.560;2022-10-28T12:56:51;101056.19;;;22.49;60.45
34931;BME280;21134;49.646;8.560;2022-10-28T12:59:25;101049.59;;;22.61;59.60